KAMG/AMG METAR and TAF weather

Enter ICAO airport designator
Station Type Date Time Source
KAMG METAR 2018/01/19 16:53 UTC NOAA

KAMG 191653Z AUTO 29008KT 10SM CLR 11/M10 A3035 RMK AO2 SLP279 T01061100


Station Type Date Time Source
KAMG Decoded METAR 2018/01/19 16:53 UTC NOAA

ALMA BACON COUNTY AIRPORT, GA, United States (KAMG) 31-32N 82-30W 59M
Jan 19, 2018 - 11:53 AM EST / 2018.01.19 1653 UTC
Wind: from the WNW (290 degrees) at 9 MPH (8 KT):0
Visibility: 10 mile(s):0
Sky conditions: clear
Temperature: 51.1 F (10.6 C)
Dew Point: 14.0 F (-10.0 C)
Relative Humidity: 22%
Pressure (altimeter): 30.35 in. Hg (1027 hPa)
ob: KAMG 191653Z AUTO 29008KT 10SM CLR 11/M10 A3035 RMK AO2 SLP279 T01061100
cycle: 17

Station Type Date Time Source
KAMG TAF UTC NOAA

Error!


Example: see airport list